createdAt,value
2017-12-23T00:00:35.697Z,9.77
2017-12-23T00:03:02.024Z,8.73
2017-12-23T00:05:28.332Z,10.07
2017-12-23T00:07:54.813Z,10.50
2017-12-23T00:10:21.935Z,7.40
2017-12-23T00:12:49.134Z,8.50
2017-12-23T00:15:16.353Z,11.10
2017-12-23T00:17:42.685Z,7.33
2017-12-23T00:20:09.759Z,11.00
2017-12-23T00:22:36.804Z,8.70
2017-12-23T00:25:04.219Z,10.07
2017-12-23T00:27:30.642Z,10.53
2017-12-23T00:29:57.700Z,8.97
2017-12-23T00:32:24.048Z,9.83
2017-12-23T00:34:50.419Z,12.67
2017-12-23T00:37:16.756Z,8.13
2017-12-23T00:39:43.876Z,11.67
2017-12-23T00:42:10.921Z,9.20
2017-12-23T00:44:37.281Z,9.57
2017-12-23T00:47:03.584Z,7.83
2017-12-23T00:49:29.960Z,8.67
2017-12-23T00:51:56.216Z,7.57
2017-12-23T00:54:22.589Z,9.43
2017-12-23T00:56:48.911Z,12.77
2017-12-23T00:59:15.217Z,8.63
2017-12-23T01:01:41.581Z,13.53
2017-12-23T01:04:07.919Z,9.10
2017-12-23T01:06:34.988Z,12.87
2017-12-23T01:09:02.179Z,7.87
2017-12-23T01:11:28.531Z,13.47
2017-12-23T01:13:54.804Z,8.57
2017-12-23T01:16:21.879Z,8.37
2017-12-23T01:18:48.247Z,8.87
2017-12-23T01:21:14.533Z,12.73
2017-12-23T01:23:40.931Z,9.17
2017-12-23T01:26:08.034Z,9.37
2017-12-23T01:28:34.698Z,9.70
2017-12-23T01:31:00.944Z,10.33
2017-12-23T01:33:27.261Z,9.73
2017-12-23T01:35:53.632Z,8.87
2017-12-23T01:38:20.724Z,8.87
2017-12-23T01:40:47.940Z,11.67
2017-12-23T01:43:15.044Z,10.60
2017-12-23T01:45:41.345Z,9.57
2017-12-23T01:48:08.732Z,10.03
2017-12-23T01:50:34.993Z,10.47
2017-12-23T01:53:02.095Z,10.67
2017-12-23T01:55:28.746Z,10.37
2017-12-23T01:57:55.106Z,12.90
2017-12-23T02:00:21.460Z,12.27
2017-12-23T02:02:48.728Z,10.27
2017-12-23T02:05:15.831Z,8.80
2017-12-23T02:07:42.156Z,12.37
2017-12-23T02:10:08.502Z,9.60
2017-12-23T02:12:34.816Z,9.90
2017-12-23T02:15:01.134Z,10.47
2017-12-23T02:17:28.456Z,11.03
2017-12-23T02:19:55.202Z,9.40
2017-12-23T02:22:21.624Z,10.33
2017-12-23T02:24:48.745Z,12.20
2017-12-23T02:27:15.890Z,11.60
2017-12-23T02:29:42.155Z,10.07
2017-12-23T02:32:09.231Z,12.30
2017-12-23T02:34:35.602Z,12.73
2017-12-23T02:37:02.031Z,9.00
2017-12-23T02:39:28.366Z,10.00
2017-12-23T02:41:54.711Z,11.17
2017-12-23T02:44:21.840Z,10.47
2017-12-23T02:46:48.947Z,11.20
2017-12-23T02:49:15.319Z,10.63
2017-12-23T02:51:41.663Z,11.83
2017-12-23T02:54:07.968Z,10.60
2017-12-23T02:56:34.328Z,9.00
2017-12-23T02:59:01.529Z,12.13
2017-12-23T03:01:27.847Z,9.37
2017-12-23T03:03:54.147Z,10.73
2017-12-23T03:06:20.536Z,9.23
2017-12-23T03:08:46.939Z,10.30
2017-12-23T03:11:14.308Z,11.70
2017-12-23T03:13:41.407Z,12.30
2017-12-23T03:16:07.741Z,11.13
2017-12-23T03:18:35.877Z,10.83
2017-12-23T03:21:02.243Z,12.50
2017-12-23T03:23:28.599Z,12.00
2017-12-23T03:25:55.623Z,11.67
2017-12-23T03:28:22.002Z,14.20
2017-12-23T03:30:48.356Z,11.57
2017-12-23T03:33:14.668Z,10.93
2017-12-23T03:35:41.028Z,10.93
2017-12-23T03:38:07.325Z,12.10
2017-12-23T03:40:34.394Z,12.70
2017-12-23T03:43:00.708Z,9.80
2017-12-23T03:45:27.800Z,15.23
2017-12-23T03:47:54.106Z,12.13
2017-12-23T03:50:20.446Z,14.30
2017-12-23T03:52:46.813Z,15.00
2017-12-23T03:55:13.980Z,12.23
2017-12-23T03:57:41.037Z,10.33
2017-12-23T04:00:08.105Z,14.13
2017-12-23T04:02:34.708Z,14.13
2017-12-23T04:05:01.055Z,14.93
2017-12-23T04:07:29.093Z,18.77
2017-12-23T04:09:55.369Z,14.47
2017-12-23T04:12:21.669Z,11.73
2017-12-23T04:14:48.720Z,10.00
2017-12-23T04:17:15.726Z,13.37
2017-12-23T04:19:42.107Z,13.50
2017-12-23T04:22:09.338Z,13.07
2017-12-23T04:24:36.384Z,14.10
2017-12-23T04:27:02.722Z,12.53
2017-12-23T04:29:29.091Z,15.20
2017-12-23T04:31:55.356Z,13.77
2017-12-23T04:34:21.704Z,10.00
2017-12-23T04:36:48.020Z,10.73
2017-12-23T04:39:15.088Z,12.77
2017-12-23T04:41:41.411Z,16.67
2017-12-23T04:44:07.774Z,16.03
2017-12-23T04:46:34.110Z,17.20
2017-12-23T04:49:00.421Z,13.20
2017-12-23T04:51:26.739Z,11.33
2017-12-23T04:53:53.418Z,11.67
2017-12-23T04:56:19.702Z,11.47
2017-12-23T04:58:45.991Z,13.37
2017-12-23T05:01:12.669Z,11.90
2017-12-23T05:03:39.050Z,9.73
2017-12-23T05:06:05.364Z,10.87
2017-12-23T05:08:32.431Z,11.67
2017-12-23T05:10:58.757Z,11.97
2017-12-23T05:13:25.063Z,14.70
2017-12-23T05:15:52.109Z,14.83
2017-12-23T05:18:18.475Z,13.30
2017-12-23T05:20:44.740Z,12.70
2017-12-23T05:23:11.071Z,13.27
2017-12-23T05:25:37.406Z,12.80
2017-12-23T05:28:03.732Z,12.50
2017-12-23T05:30:30.045Z,11.97
2017-12-23T05:32:56.423Z,13.03
2017-12-23T05:35:22.803Z,12.60
2017-12-23T05:37:49.124Z,13.63
2017-12-23T05:40:15.471Z,17.77
2017-12-23T05:42:41.809Z,15.40
2017-12-23T05:45:08.170Z,13.87
2017-12-23T05:47:34.558Z,11.73
2017-12-23T05:50:00.860Z,16.87
2017-12-23T05:52:27.197Z,12.20
2017-12-23T05:54:54.260Z,14.33
2017-12-23T05:57:20.613Z,13.93
2017-12-23T05:59:46.961Z,14.07
2017-12-23T06:02:14.623Z,16.97
2017-12-23T06:04:41.359Z,16.30
2017-12-23T06:07:07.804Z,15.10
2017-12-23T06:09:34.153Z,13.97
2017-12-23T06:12:00.488Z,14.37
2017-12-23T06:14:26.761Z,14.73
2017-12-23T06:16:53.099Z,13.17
2017-12-23T06:19:19.424Z,19.03
2017-12-23T06:21:45.825Z,17.37
2017-12-23T06:24:12.960Z,19.83
2017-12-23T06:26:40.034Z,14.13
2017-12-23T06:29:06.399Z,11.50
2017-12-23T06:31:32.718Z,13.50
2017-12-23T06:33:59.037Z,14.83
2017-12-23T06:36:25.391Z,15.00
2017-12-23T06:38:51.766Z,16.87
2017-12-23T06:41:18.863Z,13.23
2017-12-23T06:43:45.207Z,15.13
2017-12-23T06:46:12.491Z,15.50
2017-12-23T06:48:38.838Z,14.03
2017-12-23T06:51:05.927Z,14.33
2017-12-23T06:53:32.294Z,16.97
2017-12-23T06:55:59.399Z,13.57
2017-12-23T06:58:25.729Z,17.63
2017-12-23T07:00:52.789Z,15.27
2017-12-23T07:03:19.158Z,16.33
2017-12-23T07:05:45.492Z,13.23
2017-12-23T07:08:11.820Z,12.20
2017-12-23T07:10:38.110Z,12.93
2017-12-23T07:13:04.424Z,15.63
2017-12-23T07:15:31.473Z,14.80
2017-12-23T07:17:58.553Z,14.90
2017-12-23T07:20:24.837Z,11.80
2017-12-23T07:22:51.138Z,11.90
2017-12-23T07:25:17.499Z,13.07
2017-12-23T07:27:44.552Z,13.20
2017-12-23T07:30:11.659Z,13.53
2017-12-23T07:32:37.995Z,14.03
2017-12-23T07:35:04.308Z,11.90
2017-12-23T07:37:30.667Z,16.07
2017-12-23T07:39:58.476Z,13.13
2017-12-23T07:42:25.582Z,15.37
2017-12-23T07:44:51.915Z,16.67
2017-12-23T07:47:18.300Z,16.23
2017-12-23T07:49:44.578Z,12.13
2017-12-23T07:52:10.902Z,13.80
2017-12-23T07:54:37.283Z,14.10
2017-12-23T07:57:04.315Z,14.13
2017-12-23T07:59:30.645Z,15.73
2017-12-23T08:01:56.970Z,15.33
2017-12-23T08:04:23.312Z,16.57
2017-12-23T08:06:49.613Z,13.23
2017-12-23T08:09:15.897Z,13.70
2017-12-23T08:11:42.300Z,15.73
2017-12-23T08:14:08.612Z,16.70
2017-12-23T08:16:35.008Z,15.83
2017-12-23T08:19:01.399Z,13.10
2017-12-23T08:21:27.927Z,13.07
2017-12-23T08:23:54.270Z,28.90
2017-12-23T08:26:20.583Z,15.97
2017-12-23T08:28:47.006Z,22.53
2017-12-23T08:31:13.346Z,20.10
2017-12-23T08:33:39.696Z,12.97
2017-12-23T08:36:06.079Z,13.87
2017-12-23T08:38:32.448Z,12.50
2017-12-23T08:40:58.815Z,15.43
2017-12-23T08:43:25.211Z,12.83
2017-12-23T08:45:51.589Z,13.67
2017-12-23T08:48:18.658Z,11.70
2017-12-23T08:50:44.994Z,17.03
2017-12-23T08:53:11.360Z,10.87
2017-12-23T08:55:37.699Z,10.83
2017-12-23T08:58:04.064Z,12.93
2017-12-23T09:00:31.951Z,14.23
2017-12-23T09:02:58.327Z,12.77
2017-12-23T09:05:24.648Z,13.43
2017-12-23T09:07:51.019Z,14.33
2017-12-23T09:10:18.062Z,12.33
2017-12-23T09:12:45.125Z,12.40
2017-12-23T09:15:11.450Z,14.27
2017-12-23T09:17:38.724Z,12.47
2017-12-23T09:20:05.078Z,11.87
2017-12-23T09:22:31.397Z,13.00
2017-12-23T09:24:57.758Z,13.13
2017-12-23T09:27:24.860Z,12.30
2017-12-23T09:29:51.205Z,10.63
2017-12-23T09:32:17.568Z,10.40
2017-12-23T09:34:43.885Z,12.90
2017-12-23T09:37:10.244Z,10.60
2017-12-23T09:39:36.852Z,11.77
2017-12-23T09:42:03.173Z,11.33
2017-12-23T09:44:29.543Z,13.43
2017-12-23T09:46:55.915Z,13.13
2017-12-23T09:49:23.275Z,14.70
2017-12-23T09:51:49.599Z,9.60
2017-12-23T09:54:16.747Z,14.20
2017-12-23T09:56:43.042Z,11.50
2017-12-23T09:59:09.381Z,10.50
2017-12-23T10:01:35.760Z,12.90
2017-12-23T10:04:02.069Z,11.30
2017-12-23T10:06:30.064Z,10.80
2017-12-23T10:08:57.081Z,11.37
2017-12-23T10:11:24.128Z,10.27
2017-12-23T10:13:51.265Z,10.97
2017-12-23T10:16:17.591Z,8.67
2017-12-23T10:18:43.950Z,8.03
2017-12-23T10:21:10.971Z,11.37
2017-12-23T10:23:37.275Z,8.07
2017-12-23T10:26:03.652Z,10.20
2017-12-23T10:28:31.070Z,10.70
2017-12-23T10:30:57.376Z,9.07
2017-12-23T10:33:23.729Z,10.73
2017-12-23T10:35:50.095Z,10.60
2017-12-23T10:38:17.205Z,8.27
2017-12-23T10:40:43.535Z,10.07
2017-12-23T10:43:09.837Z,8.23
2017-12-23T10:45:36.878Z,7.07
2017-12-23T10:48:04.130Z,6.87
2017-12-23T10:50:31.236Z,10.90
2017-12-23T10:52:58.352Z,10.47
2017-12-23T10:55:24.658Z,7.30
2017-12-23T10:57:51.773Z,9.33
2017-12-23T11:00:19.045Z,10.00
2017-12-23T11:02:45.372Z,10.03
2017-12-23T11:05:11.722Z,7.80
2017-12-23T11:07:38.775Z,8.50
2017-12-23T11:10:05.872Z,8.43
2017-12-23T11:12:33.832Z,8.73
2017-12-23T11:15:00.967Z,7.67
2017-12-23T11:17:27.298Z,7.57
2017-12-23T11:19:53.562Z,7.73
2017-12-23T11:22:20.867Z,8.90
2017-12-23T11:24:47.227Z,8.00
2017-12-23T11:27:13.606Z,7.60
2017-12-23T11:29:39.985Z,7.57
2017-12-23T11:32:06.325Z,6.77
2017-12-23T11:34:32.700Z,7.43
2017-12-23T11:36:58.979Z,10.17
2017-12-23T11:39:25.245Z,10.10
2017-12-23T11:41:51.556Z,11.30
2017-12-23T11:44:17.884Z,7.13
2017-12-23T11:46:44.200Z,7.93
2017-12-23T11:49:10.518Z,10.57
2017-12-23T11:51:36.879Z,12.27
2017-12-23T11:54:03.300Z,10.50
2017-12-23T11:56:29.619Z,10.77
2017-12-23T11:58:55.903Z,9.93
2017-12-23T12:01:22.239Z,7.80
2017-12-23T12:03:48.517Z,7.43
2017-12-23T12:06:14.872Z,11.13
2017-12-23T12:08:41.188Z,8.73
2017-12-23T12:11:07.513Z,11.77
2017-12-23T12:13:33.887Z,8.93
2017-12-23T12:16:00.185Z,7.60
2017-12-23T12:18:26.600Z,7.27
2017-12-23T12:20:52.941Z,8.13
2017-12-23T12:23:19.182Z,8.10
2017-12-23T12:25:45.564Z,7.87
2017-12-23T12:28:12.813Z,5.93
2017-12-23T12:30:39.193Z,5.73
2017-12-23T12:33:05.512Z,7.03
2017-12-23T12:35:31.887Z,8.37
2017-12-23T12:37:58.236Z,7.77
2017-12-23T12:40:24.560Z,6.60
2017-12-23T12:42:50.852Z,6.23
2017-12-23T12:45:17.166Z,5.53
2017-12-23T12:47:43.521Z,5.33
2017-12-23T12:50:09.821Z,5.43
2017-12-23T12:52:36.944Z,8.10
2017-12-23T12:55:03.279Z,4.97
2017-12-23T12:57:29.626Z,5.13
2017-12-23T12:59:56.711Z,5.33
2017-12-23T13:02:23.089Z,4.57
2017-12-23T13:04:49.378Z,4.00
2017-12-23T13:07:15.709Z,4.53
2017-12-23T13:09:42.038Z,6.53
2017-12-23T13:12:08.392Z,4.30
2017-12-23T13:14:35.479Z,4.03
2017-12-23T13:17:02.552Z,5.83
2017-12-23T13:19:28.913Z,3.97
2017-12-23T13:21:55.977Z,3.40
2017-12-23T13:24:22.319Z,4.07
2017-12-23T13:26:48.744Z,3.33
2017-12-23T13:29:15.032Z,3.80
2017-12-23T13:31:41.401Z,3.87
2017-12-23T13:34:07.700Z,3.00
2017-12-23T13:36:34.033Z,3.73
2017-12-23T13:39:00.312Z,6.63
2017-12-23T13:41:26.838Z,3.47
2017-12-23T13:43:53.125Z,4.37
2017-12-23T13:46:19.451Z,3.97
2017-12-23T13:48:45.840Z,4.77
2017-12-23T13:51:12.191Z,3.50
2017-12-23T13:53:39.315Z,4.70
2017-12-23T13:56:05.637Z,4.53
2017-12-23T13:58:32.180Z,4.50
2017-12-23T14:00:58.505Z,4.80
2017-12-23T14:03:24.789Z,3.27
2017-12-23T14:05:51.837Z,3.87
2017-12-23T14:08:18.905Z,3.30
2017-12-23T14:10:45.249Z,3.87
2017-12-23T14:13:11.541Z,5.07
2017-12-23T14:15:38.656Z,5.50
2017-12-23T14:18:04.985Z,3.53
2017-12-23T14:20:31.315Z,3.97
2017-12-23T14:22:57.719Z,2.90
2017-12-23T14:25:24.018Z,2.57
2017-12-23T14:27:51.065Z,4.17
2017-12-23T14:30:18.106Z,3.40
2017-12-23T14:32:45.179Z,4.10
2017-12-23T14:35:11.520Z,3.30
2017-12-23T14:37:37.875Z,3.17
2017-12-23T14:40:04.186Z,3.80
2017-12-23T14:42:30.549Z,6.10
2017-12-23T14:44:56.964Z,4.83
2017-12-23T14:47:23.331Z,5.03
2017-12-23T14:49:50.150Z,4.00
2017-12-23T14:52:16.537Z,6.33
2017-12-23T14:54:42.892Z,5.13
2017-12-23T14:57:09.213Z,4.73
2017-12-23T14:59:35.573Z,5.73
2017-12-23T15:02:01.909Z,4.60
2017-12-23T15:04:28.291Z,4.50
2017-12-23T15:06:54.618Z,5.73
2017-12-23T15:09:21.715Z,5.83
2017-12-23T15:11:48.089Z,5.17
2017-12-23T15:14:15.129Z,7.23
2017-12-23T15:16:41.455Z,5.70
2017-12-23T15:19:07.805Z,6.30
2017-12-23T15:21:34.829Z,7.03
2017-12-23T15:24:01.477Z,6.63
2017-12-23T15:26:27.764Z,4.60
2017-12-23T15:28:54.116Z,5.23
2017-12-23T15:31:20.432Z,5.63
2017-12-23T15:33:46.812Z,5.03
2017-12-23T15:36:13.156Z,6.43
2017-12-23T15:38:40.239Z,5.47
2017-12-23T15:41:06.554Z,8.53
2017-12-23T15:43:32.894Z,5.97
2017-12-23T15:45:59.216Z,6.07
2017-12-23T15:48:25.552Z,5.93
2017-12-23T15:50:51.852Z,6.87
2017-12-23T15:53:19.004Z,4.93
2017-12-23T15:55:46.085Z,7.10
2017-12-23T15:58:12.433Z,6.37
2017-12-23T16:00:38.781Z,5.17
2017-12-23T16:03:05.120Z,5.90
2017-12-23T16:05:31.449Z,6.73
2017-12-23T16:07:57.729Z,8.27
2017-12-23T16:10:24.065Z,7.67
2017-12-23T16:12:50.421Z,6.70
2017-12-23T16:15:16.779Z,7.50
2017-12-23T16:17:43.076Z,9.67
2017-12-23T16:20:09.385Z,8.07
2017-12-23T16:22:35.748Z,8.40
2017-12-23T16:25:02.144Z,11.20
2017-12-23T16:27:29.173Z,7.20
2017-12-23T16:29:55.470Z,11.23
2017-12-23T16:32:21.733Z,7.07
2017-12-23T16:34:48.022Z,9.13
2017-12-23T16:37:14.294Z,9.70
2017-12-23T16:39:40.652Z,7.17
2017-12-23T16:42:06.997Z,10.60
2017-12-23T16:44:33.325Z,8.27
2017-12-23T16:46:59.696Z,8.03
2017-12-23T16:49:26.071Z,10.47
2017-12-23T16:51:52.393Z,11.53
2017-12-23T16:54:19.479Z,9.60
2017-12-23T16:56:45.868Z,8.90
2017-12-23T16:59:12.961Z,10.07
2017-12-23T17:01:39.238Z,11.33
2017-12-23T17:04:06.389Z,12.63
2017-12-23T17:06:32.825Z,12.03
2017-12-23T17:08:59.987Z,12.10
2017-12-23T17:11:27.047Z,11.33
2017-12-23T17:13:54.126Z,9.90
2017-12-23T17:16:20.481Z,9.53
2017-12-23T17:18:46.830Z,9.97
2017-12-23T17:21:13.189Z,9.90
2017-12-23T17:23:40.256Z,9.10
2017-12-23T17:26:06.561Z,12.00
2017-12-23T17:28:46.125Z,9.40
2017-12-23T17:31:12.533Z,8.87
2017-12-23T17:33:39.676Z,9.83
2017-12-23T17:36:07.118Z,6.60
2017-12-23T17:38:33.507Z,9.67
2017-12-23T17:40:59.901Z,8.93
2017-12-23T17:43:26.287Z,10.00
2017-12-23T17:45:52.632Z,10.77
2017-12-23T17:48:18.985Z,8.13
2017-12-23T17:50:45.345Z,10.57
2017-12-23T17:53:12.432Z,11.60
2017-12-23T17:55:38.785Z,12.20
2017-12-23T17:58:05.135Z,7.77
2017-12-23T18:00:31.460Z,10.13
2017-12-23T18:02:57.732Z,12.07
2017-12-23T18:05:24.826Z,13.17
2017-12-23T18:07:51.211Z,13.10
2017-12-23T18:10:17.557Z,10.70
2017-12-23T18:12:43.824Z,12.07
2017-12-23T18:15:10.126Z,10.87
2017-12-23T18:17:36.428Z,11.50
2017-12-23T18:20:03.933Z,11.07
2017-12-23T18:22:30.329Z,9.20
2017-12-23T18:24:56.680Z,10.70
2017-12-23T18:27:23.030Z,8.03
2017-12-23T18:29:49.541Z,9.80
2017-12-23T18:32:15.893Z,9.63
2017-12-23T18:34:42.253Z,11.63
2017-12-23T18:37:08.649Z,10.60
2017-12-23T18:39:34.996Z,9.27
2017-12-23T18:42:01.296Z,9.93
2017-12-23T18:44:27.599Z,9.33
2017-12-23T18:46:55.020Z,6.67
2017-12-23T18:49:21.376Z,8.77
2017-12-23T18:51:47.727Z,9.27
2017-12-23T18:54:14.836Z,9.10
2017-12-23T18:56:41.170Z,7.13
2017-12-23T18:59:07.563Z,10.33
2017-12-23T19:01:33.901Z,7.10
2017-12-23T19:04:00.620Z,8.33
2017-12-23T19:06:26.967Z,8.47
2017-12-23T19:08:53.245Z,8.57
2017-12-23T19:11:19.575Z,6.67
2017-12-23T19:13:45.929Z,11.03
2017-12-23T19:16:25.310Z,7.97
2017-12-23T19:18:51.662Z,7.70
2017-12-23T19:21:18.023Z,8.07
2017-12-23T19:23:44.394Z,12.17
2017-12-23T19:26:11.091Z,10.93
2017-12-23T19:28:37.413Z,7.20
2017-12-23T19:31:03.718Z,7.73
2017-12-23T19:33:30.103Z,8.83
2017-12-23T19:35:57.112Z,9.27
2017-12-23T19:38:23.467Z,10.90
2017-12-23T19:40:49.781Z,9.10
2017-12-23T19:43:16.074Z,10.67
2017-12-23T19:45:42.444Z,9.53
2017-12-23T19:48:08.717Z,9.13
2017-12-23T19:50:35.794Z,11.63
2017-12-23T19:53:02.518Z,7.43
2017-12-23T19:55:28.903Z,10.40
2017-12-23T19:57:55.282Z,11.60
2017-12-23T20:00:21.600Z,9.37
2017-12-23T20:02:48.587Z,11.30
2017-12-23T20:05:14.888Z,8.10
2017-12-23T20:07:41.183Z,13.50
2017-12-23T20:10:07.594Z,8.53
2017-12-23T20:12:33.968Z,8.10
2017-12-23T20:15:01.042Z,8.30
2017-12-23T20:17:27.401Z,10.13
2017-12-23T20:19:54.091Z,10.17
2017-12-23T20:22:20.400Z,10.97
2017-12-23T20:24:46.728Z,9.73
2017-12-23T20:27:13.051Z,9.80
2017-12-23T20:29:39.400Z,7.90
2017-12-23T20:32:05.711Z,11.20
2017-12-23T20:34:32.048Z,8.97
2017-12-23T20:36:58.400Z,7.40
2017-12-23T20:39:25.487Z,7.13
2017-12-23T20:41:51.880Z,7.20
2017-12-23T20:44:18.976Z,5.53
2017-12-23T20:46:45.635Z,8.97
2017-12-23T20:49:11.957Z,4.47
2017-12-23T20:51:38.952Z,9.00
2017-12-23T20:54:06.082Z,8.37
2017-12-23T20:56:32.375Z,6.67
2017-12-23T20:58:58.743Z,7.17
2017-12-23T21:01:25.085Z,9.60
2017-12-23T21:03:52.158Z,6.27
2017-12-23T21:06:18.499Z,5.43
2017-12-23T21:08:44.787Z,6.23
2017-12-23T21:11:11.104Z,6.00
2017-12-23T21:13:37.380Z,7.40
2017-12-23T21:16:06.019Z,7.77
2017-12-23T21:18:32.376Z,7.73
2017-12-23T21:20:59.453Z,9.37
2017-12-23T21:23:26.551Z,8.53
2017-12-23T21:25:52.900Z,7.73
2017-12-23T21:28:19.201Z,7.03
2017-12-23T21:30:45.713Z,8.37
2017-12-23T21:33:12.711Z,8.43
2017-12-23T21:35:39.029Z,6.97
2017-12-23T21:38:05.337Z,6.33
2017-12-23T21:40:31.695Z,5.97
2017-12-23T21:42:58.037Z,9.53
2017-12-23T21:45:24.351Z,4.53
2017-12-23T21:47:50.681Z,5.40
2017-12-23T21:50:16.930Z,6.67
2017-12-23T21:52:43.295Z,4.63
2017-12-23T21:55:09.609Z,7.30
2017-12-23T21:57:36.759Z,8.23
2017-12-23T22:00:03.935Z,7.43
2017-12-23T22:02:30.303Z,6.37
2017-12-23T22:04:56.633Z,6.20
2017-12-23T22:07:22.936Z,5.27
2017-12-23T22:09:49.335Z,5.13
2017-12-23T22:12:16.364Z,5.70
2017-12-23T22:14:42.714Z,4.13
2017-12-23T22:17:09.777Z,7.20
2017-12-23T22:19:36.845Z,3.87
2017-12-23T22:22:03.177Z,5.00
2017-12-23T22:24:29.557Z,6.10
2017-12-23T22:26:55.916Z,7.03
2017-12-23T22:29:23.017Z,4.80
2017-12-23T22:31:49.758Z,3.90
2017-12-23T22:34:16.120Z,4.57
2017-12-23T22:36:42.512Z,4.73
2017-12-23T22:39:08.924Z,4.60
2017-12-23T22:41:35.271Z,4.27
2017-12-23T22:44:01.634Z,4.67
2017-12-23T22:46:27.914Z,3.70
2017-12-23T22:48:55.005Z,3.60
2017-12-23T22:51:21.358Z,3.50
2017-12-23T22:53:48.100Z,4.57
2017-12-23T22:56:14.434Z,5.53
2017-12-23T22:58:40.720Z,4.57
2017-12-23T23:01:07.000Z,4.83
2017-12-23T23:03:33.368Z,4.20
2017-12-23T23:05:59.723Z,3.90
2017-12-23T23:08:26.080Z,5.17
2017-12-23T23:10:52.434Z,6.13
2017-12-23T23:13:18.773Z,4.00
2017-12-23T23:15:45.828Z,5.70
2017-12-23T23:18:12.903Z,4.87
2017-12-23T23:20:39.285Z,3.17
2017-12-23T23:23:05.609Z,4.97
2017-12-23T23:25:32.339Z,3.93
2017-12-23T23:27:58.605Z,6.33
2017-12-23T23:30:25.667Z,3.90
2017-12-23T23:32:52.042Z,2.97
2017-12-23T23:35:18.350Z,3.70
2017-12-23T23:37:44.724Z,3.23
2017-12-23T23:40:11.078Z,4.37
2017-12-23T23:42:38.164Z,3.60
2017-12-23T23:45:04.488Z,6.43
2017-12-23T23:47:30.809Z,2.83
2017-12-23T23:49:57.865Z,3.13
2017-12-23T23:52:24.525Z,3.63
2017-12-23T23:54:50.813Z,3.60
2017-12-23T23:57:17.857Z,3.07
2017-12-23T23:59:44.933Z,6.47
